createdAt,value
2019-03-23T00:00:34.983Z,-957.61
2019-03-23T00:01:35.347Z,-955.56
2019-03-23T00:02:35.698Z,-958.14
2019-03-23T00:03:35.944Z,-956.85
2019-03-23T00:04:36.292Z,-956.37
2019-03-23T00:05:36.585Z,-955.91
2019-03-23T00:06:36.937Z,-957.00
2019-03-23T00:07:37.240Z,-958.36
2019-03-23T00:08:37.573Z,-957.28
2019-03-23T00:09:37.914Z,-906.95
2019-03-23T00:10:38.239Z,-904.12
2019-03-23T00:11:38.591Z,-903.80
2019-03-23T00:12:38.873Z,-903.21
2019-03-23T00:13:39.198Z,-910.77
2019-03-23T00:14:39.536Z,-902.16
2019-03-23T00:15:39.843Z,-904.52
2019-03-23T00:16:40.155Z,-913.32
2019-03-23T00:17:40.501Z,-909.65
2019-03-23T00:18:41.399Z,-901.22
2019-03-23T00:19:41.293Z,-906.83
2019-03-23T00:20:41.479Z,-906.68
2019-03-23T00:21:41.796Z,-903.93
2019-03-23T00:22:42.135Z,-901.61
2019-03-23T00:23:42.440Z,-902.94
2019-03-23T00:24:42.777Z,-905.62
2019-03-23T00:25:43.087Z,-910.38
2019-03-23T00:26:43.419Z,-910.66
2019-03-23T00:27:43.802Z,-907.59
2019-03-23T00:28:44.038Z,-909.72
2019-03-23T00:29:44.380Z,-907.95
2019-03-23T00:30:44.684Z,-906.32
2019-03-23T00:31:45.025Z,-904.34
2019-03-23T00:32:45.334Z,-906.05
2019-03-23T00:33:45.675Z,-905.57
2019-03-23T00:34:46.006Z,-905.36
2019-03-23T00:35:46.362Z,-913.27
2019-03-23T00:36:46.612Z,-908.20
2019-03-23T00:37:46.948Z,-907.69
2019-03-23T00:38:47.268Z,-912.02
2019-03-23T00:39:47.608Z,-908.21
2019-03-23T00:40:48.594Z,-908.27
2019-03-23T00:41:48.225Z,-908.54
2019-03-23T00:42:48.564Z,-912.05
2019-03-23T00:43:48.959Z,-912.42
2019-03-23T00:44:49.214Z,-909.46
2019-03-23T00:45:49.527Z,-908.79
2019-03-23T00:46:49.842Z,-906.90
2019-03-23T00:47:50.183Z,-908.13
2019-03-23T00:48:50.498Z,-907.81
2019-03-23T00:49:50.835Z,-912.37
2019-03-23T00:50:51.115Z,-905.76
2019-03-23T00:51:51.480Z,-907.49
2019-03-23T00:52:51.910Z,-910.75
2019-03-23T00:53:52.097Z,-909.07
2019-03-23T00:54:52.419Z,-911.41
2019-03-23T00:55:52.743Z,-908.04
2019-03-23T00:56:53.093Z,-909.77
2019-03-23T00:57:53.439Z,-909.18
2019-03-23T00:58:53.722Z,-915.67
2019-03-23T00:59:54.065Z,-909.26
2019-03-23T01:00:54.462Z,-913.38
2019-03-23T01:01:54.689Z,-910.46
2019-03-23T01:02:55.024Z,-912.61
2019-03-23T01:03:55.563Z,-909.46
2019-03-23T01:04:55.670Z,-910.49
2019-03-23T01:05:55.961Z,-913.90
2019-03-23T01:06:56.292Z,-912.52
2019-03-23T01:07:56.637Z,-911.88
2019-03-23T01:08:57.029Z,-909.65
2019-03-23T01:09:57.266Z,-905.69
2019-03-23T01:10:57.577Z,-915.11
2019-03-23T01:11:57.893Z,-909.57
2019-03-23T01:12:58.235Z,-913.07
2019-03-23T01:13:58.548Z,-912.04
2019-03-23T01:14:58.878Z,-905.38
2019-03-23T01:15:59.198Z,-909.27
2019-03-23T01:16:59.570Z,-908.23
2019-03-23T01:17:59.824Z,-908.33
2019-03-23T01:19:00.154Z,-913.91
2019-03-23T01:20:00.474Z,-911.58
2019-03-23T01:21:00.824Z,-906.31
2019-03-23T01:22:01.148Z,-907.80
2019-03-23T01:23:01.485Z,-907.05
2019-03-23T01:24:01.772Z,-914.12
2019-03-23T01:25:02.138Z,-909.22
2019-03-23T01:26:02.631Z,-907.78
2019-03-23T01:27:02.770Z,-909.72
2019-03-23T01:28:03.115Z,-906.12
2019-03-23T01:29:03.396Z,-908.99
2019-03-23T01:30:03.739Z,-906.94
2019-03-23T01:31:04.079Z,-915.27
2019-03-23T01:32:04.400Z,-912.74
2019-03-23T01:33:04.738Z,-912.02
2019-03-23T01:34:05.131Z,-909.61
2019-03-23T01:35:05.363Z,-909.98
2019-03-23T01:36:05.699Z,-909.43
2019-03-23T01:37:06.014Z,-909.60
2019-03-23T01:38:06.340Z,-913.63
2019-03-23T01:39:06.645Z,-908.89
2019-03-23T01:40:06.951Z,-907.65
2019-03-23T01:41:07.301Z,-908.27
2019-03-23T01:42:07.745Z,-909.41
2019-03-23T01:43:07.942Z,-911.43
2019-03-23T01:44:08.264Z,-906.43
2019-03-23T01:45:08.556Z,-906.50
2019-03-23T01:46:08.911Z,-904.36
2019-03-23T01:47:09.226Z,-904.55
2019-03-23T01:48:09.563Z,-906.23
2019-03-23T01:49:09.853Z,-904.73
2019-03-23T01:50:10.202Z,-905.94
2019-03-23T01:51:10.486Z,-904.38
2019-03-23T01:52:10.824Z,-901.60
2019-03-23T01:53:11.162Z,-899.83
2019-03-23T01:54:11.474Z,-901.82
2019-03-23T01:55:11.780Z,-906.22
2019-03-23T01:56:12.123Z,-903.83
2019-03-23T01:57:12.416Z,-903.86
2019-03-23T01:58:12.843Z,-908.27
2019-03-23T01:59:13.065Z,-907.33
2019-03-23T02:00:13.396Z,-905.43
2019-03-23T02:01:13.735Z,-909.42
2019-03-23T02:02:14.060Z,-909.84
2019-03-23T02:03:14.366Z,-906.19
2019-03-23T02:04:14.684Z,-906.94
2019-03-23T02:05:15.073Z,-906.93
2019-03-23T02:06:15.367Z,-905.74
2019-03-23T02:07:15.774Z,-905.48
2019-03-23T02:08:15.975Z,-905.10
2019-03-23T02:09:16.297Z,-908.95
2019-03-23T02:10:16.616Z,-909.05
2019-03-23T02:11:16.958Z,-902.88
2019-03-23T02:12:17.283Z,-904.91
2019-03-23T02:13:17.600Z,-902.60
2019-03-23T02:14:17.890Z,-907.04
2019-03-23T02:15:18.318Z,-908.33
2019-03-23T02:16:18.565Z,-910.95
2019-03-23T02:17:18.864Z,-910.83
2019-03-23T02:18:19.177Z,-905.64
2019-03-23T02:19:19.509Z,-910.77
2019-03-23T02:20:19.850Z,-911.03
2019-03-23T02:21:20.180Z,-905.72
2019-03-23T02:22:20.491Z,-902.63
2019-03-23T02:23:20.895Z,-906.37
2019-03-23T02:24:21.111Z,-909.50
2019-03-23T02:25:21.468Z,-902.02
2019-03-23T02:26:21.804Z,-907.08
2019-03-23T02:27:22.119Z,-910.50
2019-03-23T02:28:22.433Z,-904.89
2019-03-23T02:29:22.772Z,-907.42
2019-03-23T02:30:23.080Z,-904.09
2019-03-23T02:31:23.490Z,-907.83
2019-03-23T02:32:23.732Z,-912.71
2019-03-23T02:33:24.068Z,-910.14
2019-03-23T02:34:24.394Z,-907.78
2019-03-23T02:35:24.679Z,-908.47
2019-03-23T02:36:25.021Z,-906.17
2019-03-23T02:37:28.104Z,-905.29
2019-03-23T02:38:25.669Z,-911.31
2019-03-23T02:39:26.042Z,-903.36
2019-03-23T02:40:26.368Z,-910.03
2019-03-23T02:41:26.631Z,-906.48
2019-03-23T02:42:27.197Z,-907.51
2019-03-23T02:43:27.535Z,-908.52
2019-03-23T02:44:27.875Z,-909.77
2019-03-23T02:45:30.213Z,-908.66
2019-03-23T02:46:28.515Z,-910.37
2019-03-23T02:47:28.831Z,-906.76
2019-03-23T02:48:29.245Z,-909.75
2019-03-23T02:49:29.475Z,-904.88
2019-03-23T02:50:29.780Z,-911.40
2019-03-23T02:51:30.121Z,-899.82
2019-03-23T02:52:30.523Z,-900.79
2019-03-23T02:53:30.749Z,-906.92
2019-03-23T02:54:31.095Z,-908.49
2019-03-23T02:55:31.402Z,-907.58
2019-03-23T02:56:31.862Z,-907.44
2019-03-23T02:57:32.052Z,-905.44
2019-03-23T02:58:32.373Z,-908.90
2019-03-23T02:59:32.716Z,-905.89
2019-03-23T03:00:33.023Z,-906.10
2019-03-23T03:01:33.367Z,-909.35
2019-03-23T03:02:33.689Z,-908.77
2019-03-23T03:03:33.970Z,-900.01
2019-03-23T03:04:34.365Z,-911.40
2019-03-23T03:05:35.420Z,-908.82
2019-03-23T03:06:34.975Z,-907.71
2019-03-23T03:07:42.120Z,-908.07
2019-03-23T03:08:36.601Z,-907.51
2019-03-23T03:09:35.935Z,-908.87
2019-03-23T03:10:36.250Z,-906.94
2019-03-23T03:11:36.612Z,-906.05
2019-03-23T03:12:36.978Z,-905.61
2019-03-23T03:13:37.215Z,-904.21
2019-03-23T03:14:37.551Z,-908.67
2019-03-23T03:15:37.849Z,-907.91
2019-03-23T03:16:38.230Z,-906.40
2019-03-23T03:17:38.508Z,-904.84
2019-03-23T03:18:38.850Z,-905.00
2019-03-23T03:19:39.179Z,-901.96
2019-03-23T03:20:39.535Z,-907.70
2019-03-23T03:21:39.830Z,-907.58
2019-03-23T03:22:40.138Z,-908.20
2019-03-23T03:23:40.455Z,-906.97
2019-03-23T03:24:40.790Z,-904.64
2019-03-23T03:25:41.090Z,-908.75
2019-03-23T03:26:41.399Z,-907.86
2019-03-23T03:27:41.756Z,-907.00
2019-03-23T03:28:42.121Z,-912.44
2019-03-23T03:29:42.575Z,-910.65
2019-03-23T03:30:42.720Z,-910.26
2019-03-23T03:31:43.067Z,-908.67
2019-03-23T03:32:43.452Z,-901.94
2019-03-23T03:33:43.731Z,-904.79
2019-03-23T03:34:44.064Z,-905.83
2019-03-23T03:35:44.360Z,-907.33
2019-03-23T03:36:44.698Z,-912.90
2019-03-23T03:37:55.837Z,-905.44
2019-03-23T03:38:46.354Z,-910.80
2019-03-23T03:39:45.661Z,-907.12
2019-03-23T03:40:45.966Z,-903.49
2019-03-23T03:41:46.292Z,-903.85
2019-03-23T03:42:46.621Z,-906.40
2019-03-23T03:43:46.971Z,-911.47
2019-03-23T03:44:47.288Z,-960.20
2019-03-23T03:45:47.641Z,-958.16
2019-03-23T03:46:47.902Z,-952.51
2019-03-23T03:47:48.250Z,-955.02
2019-03-23T03:48:48.574Z,-957.15
2019-03-23T03:49:48.898Z,-956.80
2019-03-23T03:50:49.214Z,-959.72
2019-03-23T03:51:49.529Z,-959.67
2019-03-23T03:52:49.868Z,-956.66
2019-03-23T03:53:50.291Z,-960.76
2019-03-23T03:54:50.502Z,-951.07
2019-03-23T03:55:50.842Z,-943.18
2019-03-23T03:56:51.149Z,-944.97
2019-03-23T03:57:51.502Z,-953.56
2019-03-23T03:58:51.822Z,-956.85
2019-03-23T03:59:52.135Z,-958.92
2019-03-23T04:00:52.425Z,-955.77
2019-03-23T04:01:52.773Z,-955.04
2019-03-23T04:02:53.234Z,-956.19
2019-03-23T04:03:53.443Z,-951.48
2019-03-23T04:04:53.764Z,-956.72
2019-03-23T04:05:54.044Z,-951.37
2019-03-23T04:06:54.383Z,-952.56
2019-03-23T04:07:54.739Z,-958.45
2019-03-23T04:08:55.087Z,-953.96
2019-03-23T04:09:55.388Z,-956.29
2019-03-23T04:10:55.766Z,-957.35
2019-03-23T04:11:55.993Z,-955.87
2019-03-23T04:12:56.342Z,-957.39
2019-03-23T04:13:56.670Z,-950.93
2019-03-23T04:14:57.007Z,-950.75
2019-03-23T04:15:57.276Z,-953.64
2019-03-23T04:16:57.603Z,-956.22
2019-03-23T04:17:57.977Z,-949.88
2019-03-23T04:18:58.340Z,-954.70
2019-03-23T04:19:58.810Z,-953.65
2019-03-23T04:20:58.893Z,-954.96
2019-03-23T04:21:59.202Z,-951.08
2019-03-23T04:22:59.553Z,-949.57
2019-03-23T04:23:59.923Z,-954.37
2019-03-23T04:25:00.567Z,-952.95
2019-03-23T04:26:00.508Z,-952.19
2019-03-23T04:27:00.914Z,-950.60
2019-03-23T04:28:01.140Z,-950.17
2019-03-23T04:29:01.466Z,-854.38
2019-03-23T04:30:01.799Z,-907.40
2019-03-23T04:31:02.122Z,-931.28
2019-03-23T04:32:02.453Z,-940.68
2019-03-23T04:33:02.796Z,-946.13
2019-03-23T04:34:03.085Z,-945.70
2019-03-23T04:35:03.452Z,-947.31
2019-03-23T04:36:03.847Z,-948.66
2019-03-23T04:37:04.085Z,-945.07
2019-03-23T04:38:04.422Z,-944.16
2019-03-23T04:39:04.724Z,-946.54
2019-03-23T04:40:05.041Z,-954.88
2019-03-23T04:41:05.406Z,-951.47
2019-03-23T04:42:05.697Z,-950.07
2019-03-23T04:43:06.039Z,-952.15
2019-03-23T04:44:06.642Z,-953.29
2019-03-23T04:45:06.661Z,-949.20
2019-03-23T04:46:07.002Z,-949.11
2019-03-23T04:47:07.323Z,-956.33
2019-03-23T04:48:07.662Z,-947.75
2019-03-23T04:49:07.959Z,-949.30
2019-03-23T04:50:08.442Z,-948.78
2019-03-23T04:51:08.607Z,-948.73
2019-03-23T04:52:13.802Z,-946.30
2019-03-23T04:53:09.273Z,-953.23
2019-03-23T04:54:09.585Z,-953.57
2019-03-23T04:55:09.936Z,-949.83
2019-03-23T04:56:10.242Z,-949.31
2019-03-23T04:57:10.572Z,-951.14
2019-03-23T04:58:10.905Z,-951.89
2019-03-23T04:59:11.211Z,-953.40
2019-03-23T05:00:11.606Z,-951.09
2019-03-23T05:01:11.836Z,-954.17
2019-03-23T05:02:12.182Z,-953.66
2019-03-23T05:03:12.535Z,-951.32
2019-03-23T05:04:12.840Z,-950.75
2019-03-23T05:05:13.191Z,-959.06
2019-03-23T05:06:13.500Z,-953.72
2019-03-23T05:07:13.805Z,-955.99
2019-03-23T05:08:14.181Z,-958.57
2019-03-23T05:09:14.430Z,-956.85
2019-03-23T05:10:14.773Z,-952.88
2019-03-23T05:11:15.107Z,-951.88
2019-03-23T05:12:15.402Z,-948.99
2019-03-23T05:13:15.749Z,-953.23
2019-03-23T05:14:16.031Z,-952.38
2019-03-23T05:15:16.370Z,-948.66
2019-03-23T05:16:16.744Z,-954.02
2019-03-23T05:17:17.071Z,-954.35
2019-03-23T05:18:17.352Z,-953.59
2019-03-23T05:19:17.657Z,-957.03
2019-03-23T05:20:17.992Z,-952.40
2019-03-23T05:21:18.336Z,-956.89
2019-03-23T05:22:18.635Z,-954.90
2019-03-23T05:23:18.980Z,-955.49
2019-03-23T05:24:19.294Z,-952.19
2019-03-23T05:25:19.682Z,-954.97
2019-03-23T05:26:19.942Z,-955.63
2019-03-23T05:27:20.237Z,-956.47
2019-03-23T05:28:20.577Z,-956.11
2019-03-23T05:29:20.859Z,-955.41
2019-03-23T05:30:21.182Z,-952.98
2019-03-23T05:31:21.548Z,-950.38
2019-03-23T05:32:21.858Z,-955.93
2019-03-23T05:33:22.290Z,-956.94
2019-03-23T05:34:22.463Z,-953.31
2019-03-23T05:35:22.788Z,-955.52
2019-03-23T05:36:23.150Z,-955.43
2019-03-23T05:37:23.445Z,-950.74
2019-03-23T05:38:23.786Z,-960.35
2019-03-23T05:39:24.079Z,-956.11
2019-03-23T05:40:24.411Z,-955.70
2019-03-23T05:41:24.760Z,-959.30
2019-03-23T05:42:25.034Z,-955.78
2019-03-23T05:43:25.380Z,-954.39
2019-03-23T05:44:25.683Z,-950.73
2019-03-23T05:45:26.005Z,-947.70
2019-03-23T05:46:26.358Z,-952.01
2019-03-23T05:47:26.630Z,-953.08
2019-03-23T05:48:26.986Z,-955.95
2019-03-23T05:49:27.343Z,-957.17
2019-03-23T05:50:27.600Z,-954.16
2019-03-23T05:51:27.951Z,-952.50
2019-03-23T05:52:28.238Z,-956.40
2019-03-23T05:53:28.568Z,-955.47
2019-03-23T05:54:28.912Z,-954.06
2019-03-23T05:55:29.234Z,-961.24
2019-03-23T05:56:29.779Z,-955.62
2019-03-23T05:57:30.131Z,-954.47
2019-03-23T05:58:30.291Z,-952.47
2019-03-23T05:59:30.542Z,-954.10
2019-03-23T06:00:30.863Z,-952.37
2019-03-23T06:01:31.213Z,-900.51
2019-03-23T06:02:31.509Z,-903.19
2019-03-23T06:03:31.815Z,-904.37
2019-03-23T06:04:32.151Z,-953.39
2019-03-23T06:05:32.490Z,-951.15
2019-03-23T06:06:32.954Z,-952.90
2019-03-23T06:07:33.130Z,-951.98
2019-03-23T06:08:33.443Z,-953.35
2019-03-23T06:09:33.792Z,-952.23
2019-03-23T06:10:34.102Z,-956.12
2019-03-23T06:11:34.447Z,-955.56
2019-03-23T06:12:34.743Z,-955.23
2019-03-23T06:13:35.064Z,-952.63
2019-03-23T06:14:35.433Z,-953.17
2019-03-23T06:15:35.688Z,-951.50
2019-03-23T06:16:36.045Z,-952.31
2019-03-23T06:17:36.341Z,-953.98
2019-03-23T06:18:36.661Z,-954.31
2019-03-23T06:19:37.006Z,-954.28
2019-03-23T06:20:37.290Z,-954.11
2019-03-23T06:21:37.664Z,-954.63
2019-03-23T06:22:37.999Z,-953.27
2019-03-23T06:23:38.249Z,-951.71
2019-03-23T06:24:38.593Z,-953.87
2019-03-23T06:25:38.879Z,-952.05
2019-03-23T06:26:39.250Z,-952.86
2019-03-23T06:27:39.536Z,-951.87
2019-03-23T06:28:39.864Z,-951.70
2019-03-23T06:29:40.211Z,-950.10
2019-03-23T06:30:40.533Z,-952.73
2019-03-23T06:31:40.886Z,-952.80
2019-03-23T06:32:41.159Z,-951.79
2019-03-23T06:33:41.477Z,-955.79
2019-03-23T06:34:41.817Z,-903.02
2019-03-23T06:35:42.120Z,-955.32
2019-03-23T06:36:42.480Z,-955.52
2019-03-23T06:37:42.777Z,-949.90
2019-03-23T06:38:43.084Z,-952.96
2019-03-23T06:39:43.518Z,-904.00
2019-03-23T06:40:43.718Z,-893.20
2019-03-23T06:41:44.092Z,-888.08
2019-03-23T06:42:44.353Z,-892.52
2019-03-23T06:43:44.692Z,-900.18
2019-03-23T06:44:45.022Z,-898.77
2019-03-23T06:45:45.329Z,-896.27
2019-03-23T06:46:45.700Z,-901.65
2019-03-23T06:47:46.084Z,-904.12
2019-03-23T06:48:46.298Z,-897.98
2019-03-23T06:49:46.623Z,-894.31
2019-03-23T06:50:46.937Z,-897.30
2019-03-23T06:51:47.313Z,-904.98
2019-03-23T06:52:47.566Z,-895.05
2019-03-23T06:53:47.887Z,-896.47
2019-03-23T06:54:48.243Z,-897.19
2019-03-23T06:55:48.604Z,-896.84
2019-03-23T06:56:48.894Z,-898.81
2019-03-23T06:57:49.183Z,-896.21
2019-03-23T06:58:49.484Z,-902.68
2019-03-23T06:59:49.838Z,-895.92
2019-03-23T07:00:50.161Z,-898.84
2019-03-23T07:01:50.505Z,-898.86
2019-03-23T07:02:50.805Z,-898.66
2019-03-23T07:03:51.157Z,-899.52
2019-03-23T07:04:51.427Z,-895.41
2019-03-23T07:05:51.741Z,-895.47
2019-03-23T07:06:52.285Z,-897.43
2019-03-23T07:07:52.431Z,-894.48
2019-03-23T07:08:52.748Z,-896.32
2019-03-23T07:09:53.078Z,-897.65
2019-03-23T07:10:53.389Z,-898.18
2019-03-23T07:11:53.722Z,-899.19
2019-03-23T07:12:54.123Z,-898.30
2019-03-23T07:13:54.352Z,-898.94
2019-03-23T07:14:54.700Z,-897.82
2019-03-23T07:15:54.984Z,-902.02
2019-03-23T07:16:55.348Z,-901.20
2019-03-23T07:17:55.677Z,-899.58
2019-03-23T07:18:55.978Z,-899.25
2019-03-23T07:19:56.322Z,-899.31
2019-03-23T07:20:56.716Z,-859.75
2019-03-23T07:21:57.249Z,-861.72
2019-03-23T07:22:57.282Z,-886.61
2019-03-23T07:23:57.581Z,-886.97
2019-03-23T07:24:57.920Z,-893.38
2019-03-23T07:25:58.234Z,-895.81
2019-03-23T07:26:58.583Z,-894.52
2019-03-23T07:27:58.895Z,-893.28
2019-03-23T07:28:59.302Z,-884.34
2019-03-23T07:29:59.543Z,-889.32
2019-03-23T07:30:59.852Z,-891.56
2019-03-23T07:32:05.769Z,-888.58
2019-03-23T07:33:01.501Z,-894.35
2019-03-23T07:34:00.830Z,-893.72
2019-03-23T07:35:01.170Z,-893.42
2019-03-23T07:36:01.477Z,-893.80
2019-03-23T07:37:02.118Z,-894.82
2019-03-23T07:38:02.100Z,-894.03
2019-03-23T07:39:02.416Z,-942.87
2019-03-23T07:40:02.768Z,-941.09
2019-03-23T07:41:03.075Z,-942.68
2019-03-23T07:42:03.430Z,-943.98
2019-03-23T07:43:03.728Z,-941.33
2019-03-23T07:44:04.035Z,-943.09
2019-03-23T07:45:04.435Z,-943.91
2019-03-23T07:46:04.684Z,-939.92
2019-03-23T07:47:05.025Z,-940.51
2019-03-23T07:48:05.355Z,-940.39
2019-03-23T07:49:05.654Z,-943.55
2019-03-23T07:50:06.035Z,-938.56
2019-03-23T07:51:06.299Z,-941.42
2019-03-23T07:52:06.659Z,-944.22
2019-03-23T07:53:06.990Z,-939.37
2019-03-23T07:54:07.376Z,-936.19
2019-03-23T07:55:07.614Z,-933.49
2019-03-23T07:56:07.924Z,-938.77
2019-03-23T07:57:08.284Z,-933.13
2019-03-23T07:58:08.583Z,-932.97
2019-03-23T07:59:08.886Z,-937.77
2019-03-23T08:00:09.229Z,-939.35
2019-03-23T08:01:09.514Z,-930.11
2019-03-23T08:02:09.978Z,-929.69
2019-03-23T08:03:10.209Z,-929.55
2019-03-23T08:04:10.831Z,-932.75
2019-03-23T08:05:11.817Z,-932.84
2019-03-23T08:06:12.024Z,-933.50
2019-03-23T08:07:11.495Z,-930.90
2019-03-23T08:08:11.825Z,-930.86
2019-03-23T08:09:20.135Z,-931.81
2019-03-23T08:10:13.533Z,-932.74
2019-03-23T08:11:12.782Z,-930.93
2019-03-23T08:12:13.113Z,-925.86
2019-03-23T08:13:13.444Z,-931.01
2019-03-23T08:14:13.742Z,-928.14
2019-03-23T08:15:14.065Z,-924.71
2019-03-23T08:16:14.404Z,-925.04
2019-03-23T08:17:14.758Z,-928.82
2019-03-23T08:18:15.090Z,-925.39
2019-03-23T08:19:15.355Z,-928.25
2019-03-23T08:20:15.674Z,-925.98
2019-03-23T08:21:16.014Z,-928.52
2019-03-23T08:22:16.340Z,-927.67
2019-03-23T08:23:16.664Z,-925.67
2019-03-23T08:24:16.959Z,-927.34
2019-03-23T08:25:17.296Z,-931.03
2019-03-23T08:26:17.881Z,-927.57
2019-03-23T08:27:17.974Z,-931.31
2019-03-23T08:28:18.265Z,-929.79
2019-03-23T08:29:18.566Z,-930.05
2019-03-23T08:30:18.903Z,-925.67
2019-03-23T08:31:19.254Z,-921.71
2019-03-23T08:32:19.549Z,-921.65
2019-03-23T08:33:19.893Z,-924.84
2019-03-23T08:34:20.203Z,-928.38
2019-03-23T08:35:20.623Z,-930.65
2019-03-23T08:36:20.853Z,-928.66
2019-03-23T08:37:21.160Z,-925.28
2019-03-23T08:38:21.506Z,-916.21
2019-03-23T08:39:21.829Z,-922.82
2019-03-23T08:40:22.114Z,-926.28
2019-03-23T08:41:22.466Z,-921.28
2019-03-23T08:42:22.777Z,-925.68
2019-03-23T08:43:23.259Z,-922.56
2019-03-23T08:44:23.389Z,-929.25
2019-03-23T08:45:23.735Z,-919.28
2019-03-23T08:46:24.091Z,-918.58
2019-03-23T08:47:24.394Z,-918.18
2019-03-23T08:48:24.741Z,-921.41
2019-03-23T08:49:25.044Z,-925.18
2019-03-23T08:50:25.361Z,-926.98
2019-03-23T08:51:25.725Z,-924.73
2019-03-23T08:52:25.981Z,-923.10
2019-03-23T08:53:26.343Z,-924.10
2019-03-23T08:54:26.643Z,-929.58
2019-03-23T08:55:26.961Z,-919.97
2019-03-23T08:56:27.285Z,-920.21
2019-03-23T08:57:27.591Z,-913.71
2019-03-23T08:58:27.958Z,-920.59
2019-03-23T08:59:28.293Z,-928.60
2019-03-23T09:00:28.548Z,-919.01
2019-03-23T09:01:28.888Z,-930.17
2019-03-23T09:02:29.195Z,-935.92
2019-03-23T09:03:29.571Z,-933.86
2019-03-23T09:04:29.858Z,-926.19
2019-03-23T09:05:30.180Z,-930.16
2019-03-23T09:06:30.521Z,-931.46
2019-03-23T09:07:30.854Z,-934.21
2019-03-23T09:08:31.188Z,-924.70
2019-03-23T09:09:31.467Z,-929.00
2019-03-23T09:10:31.787Z,-927.34
2019-03-23T09:11:32.130Z,-928.02
2019-03-23T09:12:32.464Z,-925.43
2019-03-23T09:13:40.176Z,-907.29
2019-03-23T09:14:34.093Z,-903.39
2019-03-23T09:15:33.438Z,-931.40
2019-03-23T09:16:34.133Z,-930.24
2019-03-23T09:17:34.102Z,-931.53
2019-03-23T09:18:34.397Z,-924.97
2019-03-23T09:19:34.724Z,-931.84
2019-03-23T09:20:35.064Z,-928.66
2019-03-23T09:21:35.404Z,-929.42
2019-03-23T09:22:35.716Z,-928.18
2019-03-23T09:23:36.089Z,-923.69
2019-03-23T09:24:36.449Z,-919.63
2019-03-23T09:25:36.673Z,-927.67
2019-03-23T09:26:37.013Z,-925.15
2019-03-23T09:27:37.318Z,-929.06
2019-03-23T09:28:37.647Z,-929.83
2019-03-23T09:29:37.972Z,-928.95
2019-03-23T09:30:38.275Z,-927.78
2019-03-23T09:31:38.625Z,-918.29
2019-03-23T09:32:38.986Z,-936.74
2019-03-23T09:33:39.235Z,-938.28
2019-03-23T09:34:39.591Z,-937.52
2019-03-23T09:35:39.871Z,-937.09
2019-03-23T09:36:41.308Z,-935.40
2019-03-23T09:37:40.547Z,-934.74
2019-03-23T09:38:40.869Z,-934.69
2019-03-23T09:39:41.205Z,-933.88
2019-03-23T09:40:41.562Z,-939.56
2019-03-23T09:41:41.826Z,-932.44
2019-03-23T09:42:42.152Z,-928.94
2019-03-23T09:43:42.480Z,-930.55
2019-03-23T09:44:42.840Z,-923.91
2019-03-23T09:45:43.125Z,-924.94
2019-03-23T09:46:43.465Z,-926.36
2019-03-23T09:47:43.736Z,-934.26
2019-03-23T09:48:44.106Z,-933.61
2019-03-23T09:49:44.565Z,-930.60
2019-03-23T09:50:44.736Z,-939.60
2019-03-23T09:51:45.072Z,-935.76
2019-03-23T09:52:45.361Z,-936.28
2019-03-23T09:53:45.703Z,-935.67
2019-03-23T09:54:46.045Z,-930.60
2019-03-23T09:55:46.344Z,-887.18
2019-03-23T09:56:46.688Z,-880.62
2019-03-23T09:57:47.091Z,-883.75
2019-03-23T09:58:47.309Z,-883.66
2019-03-23T09:59:47.938Z,-884.70
2019-03-23T10:00:47.954Z,-877.72
2019-03-23T10:01:48.292Z,-879.74
2019-03-23T10:02:48.586Z,-876.93
2019-03-23T10:03:48.915Z,-873.93
2019-03-23T10:04:49.295Z,-880.78
2019-03-23T10:05:49.639Z,-868.23
2019-03-23T10:06:49.901Z,-873.69
2019-03-23T10:07:50.202Z,-870.15
2019-03-23T10:08:50.509Z,-866.37
2019-03-23T10:09:50.889Z,-880.38
2019-03-23T10:10:51.173Z,-880.61
2019-03-23T10:11:51.510Z,-868.72
2019-03-23T10:12:51.813Z,-868.25
2019-03-23T10:13:52.173Z,-868.54
2019-03-23T10:14:52.465Z,-869.79
2019-03-23T10:15:52.770Z,-873.59
2019-03-23T10:16:53.090Z,-878.12
2019-03-23T10:17:53.410Z,-877.32
2019-03-23T10:18:53.729Z,-880.54
2019-03-23T10:19:54.106Z,-877.46
2019-03-23T10:20:54.365Z,-879.11
2019-03-23T10:21:54.734Z,-870.22
2019-03-23T10:22:55.135Z,-879.39
2019-03-23T10:23:55.400Z,-867.88
2019-03-23T10:24:55.769Z,-879.76
2019-03-23T10:25:56.031Z,-879.35
2019-03-23T10:26:56.374Z,-866.88
2019-03-23T10:27:56.718Z,-873.69
2019-03-23T10:28:57.022Z,-881.23
2019-03-23T10:29:57.402Z,-882.18
2019-03-23T10:30:57.784Z,-879.61
2019-03-23T10:31:57.992Z,-879.91
2019-03-23T10:32:58.335Z,-882.54
2019-03-23T10:33:58.633Z,-885.97
2019-03-23T10:34:59.008Z,-887.51
2019-03-23T10:35:59.279Z,-878.38
2019-03-23T10:36:59.582Z,-877.47
2019-03-23T10:37:59.933Z,-873.94
2019-03-23T10:39:00.346Z,-876.80
2019-03-23T10:40:00.613Z,-879.07
2019-03-23T10:41:00.867Z,-880.66
2019-03-23T10:42:01.196Z,-868.23
2019-03-23T10:43:01.549Z,-865.54
2019-03-23T10:44:01.859Z,-869.70
2019-03-23T10:45:02.216Z,-864.58
2019-03-23T10:46:02.509Z,-863.13
2019-03-23T10:47:02.973Z,-871.36
2019-03-23T10:48:03.151Z,-868.55
2019-03-23T10:49:03.482Z,-887.58
2019-03-23T10:50:03.811Z,-877.73
2019-03-23T10:51:04.122Z,-883.06
2019-03-23T10:52:04.445Z,-880.29
2019-03-23T10:53:04.777Z,-882.58
2019-03-23T10:54:05.068Z,-863.04
2019-03-23T10:55:05.727Z,-869.74
2019-03-23T10:56:05.752Z,-872.18
2019-03-23T10:57:06.032Z,-876.69
2019-03-23T10:58:06.373Z,-882.56
2019-03-23T10:59:06.683Z,-881.67
2019-03-23T11:00:24.570Z,-873.15
2019-03-23T11:01:08.351Z,-875.63
2019-03-23T11:02:07.655Z,-883.86
2019-03-23T11:03:08.050Z,-887.33
2019-03-23T11:04:08.439Z,-876.36
2019-03-23T11:05:08.655Z,-883.05
2019-03-23T11:06:08.980Z,-890.68
2019-03-23T11:07:09.298Z,-877.87
2019-03-23T11:08:09.626Z,-887.94
2019-03-23T11:09:09.937Z,-887.83
2019-03-23T11:10:10.277Z,-884.49
2019-03-23T11:11:10.592Z,-883.14
2019-03-23T11:12:11.035Z,-891.16
2019-03-23T11:13:11.247Z,-880.76
2019-03-23T11:14:11.549Z,-873.78
2019-03-23T11:15:11.871Z,-880.12
2019-03-23T11:16:12.181Z,-891.89
2019-03-23T11:17:12.510Z,-879.57
2019-03-23T11:18:12.851Z,-885.15
2019-03-23T11:19:13.542Z,-880.73
2019-03-23T11:20:13.556Z,-890.36
2019-03-23T11:21:13.784Z,-893.04
2019-03-23T11:22:14.119Z,-888.68
2019-03-23T11:23:14.455Z,-885.76
2019-03-23T11:24:14.761Z,-891.45
2019-03-23T11:25:15.081Z,-898.62
2019-03-23T11:26:15.436Z,-884.62
2019-03-23T11:27:15.728Z,-889.24
2019-03-23T11:28:16.166Z,-887.35
2019-03-23T11:29:16.374Z,-886.91
2019-03-23T11:30:16.699Z,-881.25
2019-03-23T11:31:17.049Z,-874.10
2019-03-23T11:32:17.361Z,-884.78
2019-03-23T11:33:17.685Z,-876.02
2019-03-23T11:34:18.288Z,-879.09
2019-03-23T11:35:18.344Z,-874.28
2019-03-23T11:36:19.015Z,-876.21
2019-03-23T11:37:19.019Z,-879.38
2019-03-23T11:38:19.294Z,-870.89
2019-03-23T11:39:19.615Z,-871.38
2019-03-23T11:40:19.949Z,-911.43
2019-03-23T11:41:20.325Z,-883.31
2019-03-23T11:42:20.595Z,-878.03
2019-03-23T11:43:20.937Z,-880.72
2019-03-23T11:44:21.244Z,-870.13
2019-03-23T11:45:21.686Z,-872.90
2019-03-23T11:46:21.957Z,-876.15
2019-03-23T11:47:22.252Z,-873.58
2019-03-23T11:48:22.600Z,-885.63
2019-03-23T11:49:22.879Z,-874.10
2019-03-23T11:50:23.223Z,-890.40
2019-03-23T11:51:23.576Z,-939.80
2019-03-23T11:52:23.881Z,-942.53
2019-03-23T11:53:24.353Z,-938.51
2019-03-23T11:54:24.510Z,-928.28
2019-03-23T11:55:24.848Z,-946.80
2019-03-23T11:56:25.219Z,-941.77
2019-03-23T11:57:25.489Z,-928.00
2019-03-23T11:58:25.833Z,-932.25
2019-03-23T11:59:26.133Z,-940.66
2019-03-23T12:00:26.442Z,-939.00
2019-03-23T12:01:26.910Z,-937.92
2019-03-23T12:02:27.096Z,-932.64
2019-03-23T12:03:27.441Z,-933.46
2019-03-23T12:04:27.740Z,-933.50
2019-03-23T12:05:28.068Z,-921.48
2019-03-23T12:06:28.397Z,-926.81
2019-03-23T12:07:28.721Z,-933.18
2019-03-23T12:08:29.055Z,-927.50
2019-03-23T12:09:29.416Z,-936.50